AVA123 SKRG-SKRG
Flight info
| Callsign | AVA123 |
|---|---|
| Flight time | 0h 23m |
| Altitude | 12000 |
| Route | RNG2B RNG RNG4C |
| Aircraft | A320/M-SDE3FGHIRWY/LB1 |
Departure
| Time | 2026-05-06 00:30 |
|---|---|
| Airport | Jose Maria Córdova International Airport (SKRG) |
Arrival
| Time | 2026-05-06 00:53 |
|---|---|
| Airport | Jose Maria Córdova International Airport (SKRG) |
| Time | Latitude | Longitude | Altitude | Speed | Heading |
|---|---|---|---|---|---|
| 2026-05-06 00:00 | 6.16941 | -75.42909 | 7016 ft | 0 kts | 347° |
| 2026-05-06 00:16 | 6.16935 | -75.42908 | 7019 ft | 2 kts | 352° |
| 2026-05-06 00:16 | 6.16916 | -75.42908 | 7018 ft | 3 kts | 24° |
| 2026-05-06 00:17 | 6.16900 | -75.42919 | 7019 ft | 3 kts | 50° |
| 2026-05-06 00:17 | 6.16888 | -75.42935 | 7020 ft | 3 kts | 63° |
| 2026-05-06 00:17 | 6.16880 | -75.42954 | 7019 ft | 3 kts | 71° |
| 2026-05-06 00:17 | 6.16874 | -75.42973 | 7017 ft | 3 kts | 76° |
| 2026-05-06 00:18 | 6.16869 | -75.42993 | 7016 ft | 3 kts | 77° |
| 2026-05-06 00:18 | 6.16867 | -75.43002 | 7020 ft | 0 kts | 76° |
| 2026-05-06 00:21 | 6.16871 | -75.42987 | 7016 ft | 4 kts | 75° |
| 2026-05-06 00:21 | 6.16878 | -75.42960 | 7017 ft | 5 kts | 76° |
| 2026-05-06 00:21 | 6.16884 | -75.42932 | 7020 ft | 7 kts | 76° |
| 2026-05-06 00:21 | 6.16907 | -75.42839 | 7016 ft | 13 kts | 75° |
| 2026-05-06 00:22 | 6.16927 | -75.42776 | 7020 ft | 15 kts | 68° |
| 2026-05-06 00:22 | 6.16953 | -75.42729 | 7017 ft | 4 kts | 53° |
| 2026-05-06 00:22 | 6.16980 | -75.42698 | 7020 ft | 8 kts | 45° |
| 2026-05-06 00:22 | 6.17033 | -75.42655 | 7019 ft | 11 kts | 41° |
| 2026-05-06 00:23 | 6.17031 | -75.42582 | 7021 ft | 12 kts | 141° |
| 2026-05-06 00:23 | 6.16948 | -75.42532 | 7017 ft | 16 kts | 149° |
| 2026-05-06 00:23 | 6.16850 | -75.42485 | 7019 ft | 17 kts | 176° |
| 2026-05-06 00:23 | 6.16734 | -75.42485 | 7016 ft | 8 kts | 180° |
| 2026-05-06 00:24 | 6.16656 | -75.42484 | 7007 ft | 15 kts | 179° |
| 2026-05-06 00:24 | 6.16532 | -75.42483 | 6998 ft | 21 kts | 179° |
| 2026-05-06 00:24 | 6.16358 | -75.42482 | 6990 ft | 28 kts | 180° |
| 2026-05-06 00:24 | 6.16173 | -75.42481 | 6985 ft | 13 kts | 180° |
| 2026-05-06 00:25 | 6.16063 | -75.42480 | 6984 ft | 18 kts | 180° |
| 2026-05-06 00:25 | 6.15920 | -75.42479 | 6982 ft | 22 kts | 179° |
| 2026-05-06 00:25 | 6.15754 | -75.42478 | 6981 ft | 26 kts | 180° |
| 2026-05-06 00:25 | 6.15565 | -75.42477 | 6980 ft | 28 kts | 179° |
| 2026-05-06 00:26 | 6.15360 | -75.42476 | 6979 ft | 31 kts | 180° |
| 2026-05-06 00:26 | 6.15156 | -75.42474 | 6978 ft | 29 kts | 179° |
| 2026-05-06 00:26 | 6.14958 | -75.42473 | 6977 ft | 13 kts | 180° |
| 2026-05-06 00:26 | 6.14900 | -75.42421 | 6978 ft | 8 kts | 92° |
| 2026-05-06 00:27 | 6.14900 | -75.42415 | 6977 ft | 0 kts | 89° |
| 2026-05-06 00:28 | 6.14901 | -75.42396 | 6977 ft | 7 kts | 89° |
| 2026-05-06 00:28 | 6.14912 | -75.42349 | 6975 ft | 7 kts | 51° |
| 2026-05-06 00:28 | 6.14951 | -75.42314 | 6977 ft | 7 kts | 54° |
| 2026-05-06 00:28 | 6.14986 | -75.42304 | 6977 ft | 0 kts | 359° |
| 2026-05-06 00:29 | 6.15235 | -75.42305 | 6980 ft | 82 kts | 359° |
| 2026-05-06 00:29 | 6.16076 | -75.42310 | 6982 ft | 157 kts | 359° |
| 2026-05-06 00:29 | 6.17236 | -75.42342 | 7318 ft | 161 kts | 359° |
| 2026-05-06 00:30 | 6.18329 | -75.42443 | 7658 ft | 156 kts | 3° |
| 2026-05-06 00:30 | 6.19425 | -75.42534 | 7891 ft | 161 kts | 356° |
| 2026-05-06 00:30 | 6.20565 | -75.42601 | 8067 ft | 165 kts | 4° |
| 2026-05-06 00:30 | 6.21677 | -75.42401 | 8341 ft | 162 kts | 26° |
| 2026-05-06 00:31 | 6.22662 | -75.41885 | 8681 ft | 159 kts | 40° |
| 2026-05-06 00:31 | 6.23481 | -75.41170 | 9046 ft | 156 kts | 53° |
| 2026-05-06 00:31 | 6.24097 | -75.40291 | 9381 ft | 153 kts | 68° |
| 2026-05-06 00:31 | 6.24468 | -75.39302 | 9728 ft | 151 kts | 81° |
| 2026-05-06 00:32 | 6.24574 | -75.38263 | 10071 ft | 149 kts | 96° |
| 2026-05-06 00:32 | 6.24418 | -75.37248 | 10375 ft | 147 kts | 109° |
| 2026-05-06 00:32 | 6.24017 | -75.36307 | 10648 ft | 147 kts | 122° |
| 2026-05-06 00:32 | 6.23393 | -75.35495 | 10948 ft | 147 kts | 135° |
| 2026-05-06 00:33 | 6.22588 | -75.34868 | 11229 ft | 148 kts | 149° |
| 2026-05-06 00:33 | 6.21672 | -75.34380 | 11464 ft | 152 kts | 149° |
| 2026-05-06 00:33 | 6.20730 | -75.33820 | 11585 ft | 163 kts | 146° |
| 2026-05-06 00:33 | 6.19768 | -75.33168 | 11710 ft | 171 kts | 142° |
| 2026-05-06 00:34 | 6.18790 | -75.32421 | 11835 ft | 180 kts | 139° |
| 2026-05-06 00:34 | 6.17819 | -75.31595 | 11969 ft | 189 kts | 136° |
| 2026-05-06 00:34 | 6.17060 | -75.30491 | 12009 ft | 203 kts | 101° |
| 2026-05-06 00:34 | 6.17328 | -75.29067 | 12005 ft | 224 kts | 58° |
| 2026-05-06 00:35 | 6.18562 | -75.28171 | 12002 ft | 222 kts | 16° |
| 2026-05-06 00:35 | 6.20127 | -75.28094 | 11999 ft | 225 kts | 358° |
| 2026-05-06 00:35 | 6.21688 | -75.28297 | 12003 ft | 226 kts | 354° |
| 2026-05-06 00:35 | 6.23212 | -75.28586 | 12001 ft | 227 kts | 343° |
| 2026-05-06 00:36 | 6.24421 | -75.29564 | 11999 ft | 231 kts | 299° |
| 2026-05-06 00:36 | 6.24682 | -75.31129 | 12005 ft | 230 kts | 255° |
| 2026-05-06 00:36 | 6.23859 | -75.32432 | 12004 ft | 222 kts | 210° |
| 2026-05-06 00:36 | 6.22436 | -75.32851 | 12006 ft | 215 kts | 179° |
| 2026-05-06 00:37 | 6.20940 | -75.32802 | 12008 ft | 215 kts | 172° |
| 2026-05-06 00:37 | 6.19453 | -75.32659 | 12009 ft | 214 kts | 171° |
| 2026-05-06 00:37 | 6.17962 | -75.32509 | 12006 ft | 215 kts | 171° |
| 2026-05-06 00:37 | 6.16545 | -75.32122 | 12007 ft | 213 kts | 146° |
| 2026-05-06 00:38 | 6.15505 | -75.31061 | 12008 ft | 217 kts | 117° |
| 2026-05-06 00:38 | 6.15168 | -75.29603 | 12002 ft | 220 kts | 86° |
| 2026-05-06 00:38 | 6.15686 | -75.28158 | 12000 ft | 224 kts | 54° |
| 2026-05-06 00:38 | 6.16946 | -75.27236 | 11999 ft | 232 kts | 20° |
| 2026-05-06 00:39 | 6.18548 | -75.27157 | 12001 ft | 238 kts | 354° |
| 2026-05-06 00:39 | 6.20210 | -75.27374 | 12001 ft | 238 kts | 358° |
| 2026-05-06 00:39 | 6.21855 | -75.27471 | 11906 ft | 236 kts | 1° |
| 2026-05-06 00:39 | 6.23489 | -75.27521 | 11649 ft | 235 kts | 1° |
| 2026-05-06 00:40 | 6.25072 | -75.27866 | 11400 ft | 238 kts | 332° |
| 2026-05-06 00:40 | 6.26175 | -75.29073 | 11168 ft | 238 kts | 291° |
| 2026-05-06 00:40 | 6.26296 | -75.30674 | 11028 ft | 233 kts | 252° |
| 2026-05-06 00:40 | 6.25462 | -75.32036 | 11007 ft | 231 kts | 216° |
| 2026-05-06 00:41 | 6.23995 | -75.32667 | 11004 ft | 237 kts | 181° |
| 2026-05-06 00:41 | 6.22316 | -75.32639 | 11004 ft | 246 kts | 180° |
| 2026-05-06 00:41 | 6.20643 | -75.33090 | 11013 ft | 253 kts | 198° |
| 2026-05-06 00:41 | 6.19001 | -75.33727 | 11032 ft | 254 kts | 198° |
| 2026-05-06 00:42 | 6.17343 | -75.34349 | 11424 ft | 255 kts | 197° |
| 2026-05-06 00:42 | 6.15678 | -75.34960 | 11862 ft | 257 kts | 197° |
| 2026-05-06 00:42 | 6.13453 | -75.35795 | 12000 ft | 258 kts | 198° |
| 2026-05-06 00:42 | 6.06787 | -75.38397 | 11993 ft | 255 kts | 195° |
| 2026-05-06 00:43 | 6.03635 | -75.39298 | 12093 ft | 258 kts | 200° |
| 2026-05-06 00:43 | 6.01952 | -75.39930 | 12162 ft | 258 kts | 194° |
| 2026-05-06 00:43 | 6.00230 | -75.40429 | 12226 ft | 258 kts | 193° |
| 2026-05-06 00:43 | 5.98499 | -75.40912 | 12299 ft | 259 kts | 192° |
| 2026-05-06 00:44 | 5.96788 | -75.41394 | 12366 ft | 259 kts | 192° |
| 2026-05-06 00:44 | 5.95030 | -75.41889 | 12430 ft | 259 kts | 192° |
| 2026-05-06 00:44 | 5.93318 | -75.42356 | 12495 ft | 258 kts | 188° |
| 2026-05-06 00:44 | 5.91527 | -75.42354 | 12561 ft | 253 kts | 164° |
| 2026-05-06 00:45 | 5.89846 | -75.41872 | 12632 ft | 252 kts | 162° |
| 2026-05-06 00:45 | 5.88140 | -75.41441 | 12700 ft | 253 kts | 163° |
| 2026-05-06 00:45 | 5.86433 | -75.41014 | 12778 ft | 252 kts | 160° |
| 2026-05-06 00:45 | 5.84989 | -75.40106 | 12831 ft | 246 kts | 126° |
| 2026-05-06 00:46 | 5.84424 | -75.38533 | 12761 ft | 243 kts | 90° |
| 2026-05-06 00:46 | 5.84909 | -75.36958 | 12426 ft | 245 kts | 58° |
| 2026-05-06 00:46 | 5.86057 | -75.35673 | 12061 ft | 251 kts | 35° |
| 2026-05-06 00:46 | 5.87695 | -75.35103 | 11940 ft | 254 kts | 8° |
| 2026-05-06 00:47 | 5.89420 | -75.35284 | 11711 ft | 248 kts | 342° |
| 2026-05-06 00:47 | 5.90853 | -75.36123 | 11541 ft | 231 kts | 326° |
| 2026-05-06 00:47 | 5.92139 | -75.37055 | 11030 ft | 226 kts | 326° |
| 2026-05-06 00:47 | 5.93394 | -75.37969 | 10660 ft | 216 kts | 326° |
| 2026-05-06 00:48 | 5.94559 | -75.38819 | 10443 ft | 202 kts | 326° |
| 2026-05-06 00:48 | 5.95683 | -75.39635 | 10127 ft | 199 kts | 326° |
| 2026-05-06 00:48 | 5.96790 | -75.40440 | 9990 ft | 195 kts | 325° |
| 2026-05-06 00:48 | 5.97890 | -75.41262 | 9996 ft | 198 kts | 324° |
| 2026-05-06 00:49 | 5.99072 | -75.41962 | 9961 ft | 198 kts | 341° |
| 2026-05-06 00:49 | 6.00409 | -75.42218 | 9802 ft | 194 kts | 1° |
| 2026-05-06 00:49 | 6.01721 | -75.42226 | 9568 ft | 187 kts | 2° |
| 2026-05-06 00:49 | 6.02986 | -75.42230 | 9343 ft | 178 kts | 2° |
| 2026-05-06 00:50 | 6.04211 | -75.42240 | 9117 ft | 177 kts | 1° |
| 2026-05-06 00:50 | 6.05409 | -75.42245 | 8879 ft | 168 kts | 1° |
| 2026-05-06 00:50 | 6.06569 | -75.42252 | 8684 ft | 164 kts | 2° |
| 2026-05-06 00:50 | 6.07697 | -75.42258 | 8472 ft | 162 kts | 2° |
| 2026-05-06 00:51 | 6.08817 | -75.42267 | 8270 ft | 160 kts | 2° |
| 2026-05-06 00:51 | 6.09928 | -75.42274 | 8065 ft | 159 kts | 1° |
| 2026-05-06 00:51 | 6.11026 | -75.42282 | 7839 ft | 158 kts | 2° |
| 2026-05-06 00:51 | 6.12116 | -75.42290 | 7602 ft | 156 kts | 1° |
| 2026-05-06 00:52 | 6.13194 | -75.42297 | 7376 ft | 156 kts | 1° |
| 2026-05-06 00:52 | 6.14284 | -75.42303 | 7147 ft | 155 kts | 1° |
| 2026-05-06 00:52 | 6.15357 | -75.42309 | 7002 ft | 150 kts | 1° |
| 2026-05-06 00:52 | 6.16293 | -75.42312 | 6986 ft | 116 kts | 0° |
| 2026-05-06 00:53 | 6.16930 | -75.42317 | 7017 ft | 66 kts | 359° |
| 2026-05-06 00:53 | 6.17318 | -75.42319 | 7024 ft | 52 kts | 360° |
| 2026-05-06 00:53 | 6.17528 | -75.42321 | 7027 ft | 17 kts | 358° |
| 2026-05-06 00:53 | 6.17572 | -75.42411 | 7020 ft | 8 kts | 271° |
| 2026-05-06 00:54 | 6.17569 | -75.42479 | 7020 ft | 12 kts | 255° |
| 2026-05-06 00:54 | 6.17516 | -75.42528 | 7019 ft | 9 kts | 213° |
| 2026-05-06 00:54 | 6.17453 | -75.42571 | 7021 ft | 14 kts | 214° |
| 2026-05-06 00:54 | 6.17356 | -75.42616 | 7019 ft | 17 kts | 183° |
| 2026-05-06 00:55 | 6.17259 | -75.42619 | 7018 ft | 11 kts | 179° |
| 2026-05-06 00:55 | 6.17170 | -75.42617 | 7019 ft | 15 kts | 178° |
| 2026-05-06 00:55 | 6.17062 | -75.42632 | 7016 ft | 17 kts | 214° |
| 2026-05-06 00:55 | 6.16962 | -75.42716 | 7016 ft | 20 kts | 230° |
| 2026-05-06 00:56 | 6.16914 | -75.42812 | 7016 ft | 10 kts | 254° |
| 2026-05-06 00:56 | 6.16895 | -75.42885 | 7019 ft | 10 kts | 263° |
| 2026-05-06 00:56 | 6.16937 | -75.42908 | 7016 ft | 0 kts | 347° |
| 2026-05-06 00:56 | 6.16941 | -75.42909 | 7017 ft | 0 kts | 347° |